sensor_id;sensor_type;location;lat;lon;timestamp;temperature;humidity
63013;DHT22;62113;45.624;11.700;2023-08-06T00:00:12;22.10;71.80
63013;DHT22;62113;45.624;11.700;2023-08-06T00:02:38;22.10;71.70
63013;DHT22;62113;45.624;11.700;2023-08-06T00:05:03;22.10;71.80
63013;DHT22;62113;45.624;11.700;2023-08-06T00:07:29;22.10;71.80
63013;DHT22;62113;45.624;11.700;2023-08-06T00:09:54;22.10;71.90
63013;DHT22;62113;45.624;11.700;2023-08-06T00:12:20;22.10;71.80
63013;DHT22;62113;45.624;11.700;2023-08-06T00:14:49;22.10;71.80
63013;DHT22;62113;45.624;11.700;2023-08-06T00:17:15;22.10;71.90
63013;DHT22;62113;45.624;11.700;2023-08-06T00:19:40;22.10;71.70
63013;DHT22;62113;45.624;11.700;2023-08-06T00:22:06;22.10;71.70
63013;DHT22;62113;45.624;11.700;2023-08-06T00:24:32;22.10;71.60
63013;DHT22;62113;45.624;11.700;2023-08-06T00:26:57;22.10;71.70
63013;DHT22;62113;45.624;11.700;2023-08-06T00:29:23;22.10;71.80
63013;DHT22;62113;45.624;11.700;2023-08-06T00:31:48;22.10;71.80
63013;DHT22;62113;45.624;11.700;2023-08-06T00:34:14;22.10;71.90
63013;DHT22;62113;45.624;11.700;2023-08-06T00:36:39;22.10;71.90
63013;DHT22;62113;45.624;11.700;2023-08-06T00:39:05;22.10;72.00
63013;DHT22;62113;45.624;11.700;2023-08-06T00:41:32;22.10;71.90
63013;DHT22;62113;45.624;11.700;2023-08-06T00:43:57;22.10;71.80
63013;DHT22;62113;45.624;11.700;2023-08-06T00:46:23;22.10;71.80
63013;DHT22;62113;45.624;11.700;2023-08-06T00:48:48;22.10;71.70
63013;DHT22;62113;45.624;11.700;2023-08-06T00:51:16;22.00;71.80
63013;DHT22;62113;45.624;11.700;2023-08-06T00:53:41;22.00;71.90
63013;DHT22;62113;45.624;11.700;2023-08-06T00:56:07;21.90;72.00
63013;DHT22;62113;45.624;11.700;2023-08-06T00:58:34;21.90;72.40
63013;DHT22;62113;45.624;11.700;2023-08-06T01:01:00;21.90;72.60
63013;DHT22;62113;45.624;11.700;2023-08-06T01:03:26;21.70;72.80
63013;DHT22;62113;45.624;11.700;2023-08-06T01:05:51;21.70;73.00
63013;DHT22;62113;45.624;11.700;2023-08-06T01:13:18;21.60;73.80
63013;DHT22;62113;45.624;11.700;2023-08-06T01:15:50;21.60;73.80
63013;DHT22;62113;45.624;11.700;2023-08-06T01:18:19;21.60;73.90
63013;DHT22;62113;45.624;11.700;2023-08-06T01:20:45;21.60;73.60
63013;DHT22;62113;45.624;11.700;2023-08-06T01:23:10;21.70;73.60
63013;DHT22;62113;45.624;11.700;2023-08-06T01:25:40;21.70;73.50
63013;DHT22;62113;45.624;11.700;2023-08-06T01:28:11;21.70;73.40
63013;DHT22;62113;45.624;11.700;2023-08-06T01:30:41;21.70;73.40
63013;DHT22;62113;45.624;11.700;2023-08-06T01:33:07;21.70;73.20
63013;DHT22;62113;45.624;11.700;2023-08-06T01:35:34;21.70;73.10
63013;DHT22;62113;45.624;11.700;2023-08-06T01:38:00;21.80;73.00
63013;DHT22;62113;45.624;11.700;2023-08-06T01:40:26;21.80;73.00
63013;DHT22;62113;45.624;11.700;2023-08-06T01:42:53;21.80;73.10
63013;DHT22;62113;45.624;11.700;2023-08-06T01:45:19;21.80;73.20
63013;DHT22;62113;45.624;11.700;2023-08-06T01:47:44;21.80;73.20
63013;DHT22;62113;45.624;11.700;2023-08-06T01:50:10;21.80;73.20
63013;DHT22;62113;45.624;11.700;2023-08-06T01:52:35;21.80;73.20
63013;DHT22;62113;45.624;11.700;2023-08-06T01:55:01;21.80;73.20
63013;DHT22;62113;45.624;11.700;2023-08-06T01:57:26;21.90;73.10
63013;DHT22;62113;45.624;11.700;2023-08-06T01:59:52;21.80;73.30
63013;DHT22;62113;45.624;11.700;2023-08-06T02:02:17;21.80;72.80
63013;DHT22;62113;45.624;11.700;2023-08-06T02:04:43;21.80;72.80
63013;DHT22;62113;45.624;11.700;2023-08-06T02:07:08;21.80;72.80
63013;DHT22;62113;45.624;11.700;2023-08-06T02:09:34;21.80;73.10
63013;DHT22;62113;45.624;11.700;2023-08-06T02:12:00;21.80;73.20
63013;DHT22;62113;45.624;11.700;2023-08-06T02:14:26;21.70;73.60
63013;DHT22;62113;45.624;11.700;2023-08-06T02:16:51;21.70;74.20
63013;DHT22;62113;45.624;11.700;2023-08-06T02:19:17;21.60;73.90
63013;DHT22;62113;45.624;11.700;2023-08-06T02:21:42;21.60;74.00
63013;DHT22;62113;45.624;11.700;2023-08-06T02:24:08;21.60;74.00
63013;DHT22;62113;45.624;11.700;2023-08-06T02:26:33;21.60;73.90
63013;DHT22;62113;45.624;11.700;2023-08-06T02:28:59;21.60;73.70
63013;DHT22;62113;45.624;11.700;2023-08-06T02:31:24;21.70;74.30
63013;DHT22;62113;45.624;11.700;2023-08-06T02:33:50;21.70;73.70
63013;DHT22;62113;45.624;11.700;2023-08-06T02:36:15;21.70;73.70
63013;DHT22;62113;45.624;11.700;2023-08-06T02:38:41;21.70;73.60
63013;DHT22;62113;45.624;11.700;2023-08-06T02:41:06;21.70;73.70
63013;DHT22;62113;45.624;11.700;2023-08-06T02:43:32;21.70;73.90
63013;DHT22;62113;45.624;11.700;2023-08-06T02:45:58;21.70;73.80
63013;DHT22;62113;45.624;11.700;2023-08-06T02:48:23;21.70;73.80
63013;DHT22;62113;45.624;11.700;2023-08-06T02:50:49;21.70;73.80
63013;DHT22;62113;45.624;11.700;2023-08-06T02:53:14;21.70;73.60
63013;DHT22;62113;45.624;11.700;2023-08-06T02:55:45;21.80;73.60
63013;DHT22;62113;45.624;11.700;2023-08-06T02:58:11;21.70;73.60
63013;DHT22;62113;45.624;11.700;2023-08-06T03:00:37;21.80;73.90
63013;DHT22;62113;45.624;11.700;2023-08-06T03:03:02;21.80;73.60
63013;DHT22;62113;45.624;11.700;2023-08-06T03:05:28;21.70;73.60
63013;DHT22;62113;45.624;11.700;2023-08-06T03:07:53;21.80;73.80
63013;DHT22;62113;45.624;11.700;2023-08-06T03:10:19;21.80;73.60
63013;DHT22;62113;45.624;11.700;2023-08-06T03:12:45;21.80;73.70
63013;DHT22;62113;45.624;11.700;2023-08-06T03:15:10;21.80;73.60
63013;DHT22;62113;45.624;11.700;2023-08-06T03:17:36;21.80;73.50
63013;DHT22;62113;45.624;11.700;2023-08-06T03:20:01;21.80;73.30
63013;DHT22;62113;45.624;11.700;2023-08-06T03:22:27;21.80;73.30
63013;DHT22;62113;45.624;11.700;2023-08-06T03:24:52;21.80;73.80
63013;DHT22;62113;45.624;11.700;2023-08-06T03:27:18;21.70;73.90
63013;DHT22;62113;45.624;11.700;2023-08-06T03:29:43;21.70;73.90
63013;DHT22;62113;45.624;11.700;2023-08-06T03:32:09;21.50;73.50
63013;DHT22;62113;45.624;11.700;2023-08-06T03:34:34;21.50;73.60
63013;DHT22;62113;45.624;11.700;2023-08-06T03:37:00;21.50;73.60
63013;DHT22;62113;45.624;11.700;2023-08-06T03:39:25;21.40;73.60
63013;DHT22;62113;45.624;11.700;2023-08-06T03:41:51;21.50;74.00
63013;DHT22;62113;45.624;11.700;2023-08-06T03:44:16;21.40;73.90
63013;DHT22;62113;45.624;11.700;2023-08-06T03:46:42;21.40;74.00
63013;DHT22;62113;45.624;11.700;2023-08-06T03:49:07;21.40;74.00
63013;DHT22;62113;45.624;11.700;2023-08-06T03:51:33;21.50;73.90
63013;DHT22;62113;45.624;11.700;2023-08-06T03:53:58;21.50;73.80
63013;DHT22;62113;45.624;11.700;2023-08-06T03:56:24;21.50;73.70
63013;DHT22;62113;45.624;11.700;2023-08-06T03:58:49;21.50;74.00
63013;DHT22;62113;45.624;11.700;2023-08-06T04:01:15;21.50;74.00
63013;DHT22;62113;45.624;11.700;2023-08-06T04:03:40;21.40;74.00
63013;DHT22;62113;45.624;11.700;2023-08-06T04:06:06;21.40;73.70
63013;DHT22;62113;45.624;11.700;2023-08-06T04:08:31;21.30;74.30
63013;DHT22;62113;45.624;11.700;2023-08-06T04:10:57;21.30;74.20
63013;DHT22;62113;45.624;11.700;2023-08-06T04:13:22;21.20;74.30
63013;DHT22;62113;45.624;11.700;2023-08-06T04:15:48;21.20;74.00
63013;DHT22;62113;45.624;11.700;2023-08-06T04:18:13;21.20;74.20
63013;DHT22;62113;45.624;11.700;2023-08-06T04:20:46;21.20;74.10
63013;DHT22;62113;45.624;11.700;2023-08-06T04:23:11;21.20;74.10
63013;DHT22;62113;45.624;11.700;2023-08-06T04:25:37;21.30;74.40
63013;DHT22;62113;45.624;11.700;2023-08-06T04:28:03;21.30;74.30
63013;DHT22;62113;45.624;11.700;2023-08-06T04:30:28;21.30;74.30
63013;DHT22;62113;45.624;11.700;2023-08-06T04:32:54;21.30;74.30
63013;DHT22;62113;45.624;11.700;2023-08-06T04:35:21;21.40;74.20
63013;DHT22;62113;45.624;11.700;2023-08-06T04:37:47;21.40;74.20
63013;DHT22;62113;45.624;11.700;2023-08-06T04:40:12;21.40;74.20
63013;DHT22;62113;45.624;11.700;2023-08-06T04:42:38;21.50;74.20
63013;DHT22;62113;45.624;11.700;2023-08-06T04:45:04;21.50;74.00
63013;DHT22;62113;45.624;11.700;2023-08-06T04:47:29;21.50;73.90
63013;DHT22;62113;45.624;11.700;2023-08-06T04:49:55;21.50;74.00
63013;DHT22;62113;45.624;11.700;2023-08-06T04:52:21;21.60;74.00
63013;DHT22;62113;45.624;11.700;2023-08-06T04:54:46;21.60;73.90
63013;DHT22;62113;45.624;11.700;2023-08-06T04:57:12;21.60;73.80
63013;DHT22;62113;45.624;11.700;2023-08-06T04:59:37;21.60;73.50
63013;DHT22;62113;45.624;11.700;2023-08-06T05:02:03;21.70;73.60
63013;DHT22;62113;45.624;11.700;2023-08-06T05:04:28;21.70;73.50
63013;DHT22;62113;45.624;11.700;2023-08-06T05:06:54;21.80;73.50
63013;DHT22;62113;45.624;11.700;2023-08-06T05:09:19;21.80;73.30
63013;DHT22;62113;45.624;11.700;2023-08-06T05:11:46;21.90;73.20
63013;DHT22;62113;45.624;11.700;2023-08-06T05:14:11;21.90;73.20
63013;DHT22;62113;45.624;11.700;2023-08-06T05:16:37;22.00;73.10
63013;DHT22;62113;45.624;11.700;2023-08-06T05:19:02;22.00;72.70
63013;DHT22;62113;45.624;11.700;2023-08-06T05:21:28;22.10;72.60
63013;DHT22;62113;45.624;11.700;2023-08-06T05:23:54;22.10;72.50
63013;DHT22;62113;45.624;11.700;2023-08-06T05:26:19;22.10;71.40
63013;DHT22;62113;45.624;11.700;2023-08-06T05:28:45;22.00;71.70
63013;DHT22;62113;45.624;11.700;2023-08-06T05:31:11;22.00;71.80
63013;DHT22;62113;45.624;11.700;2023-08-06T05:33:36;21.90;71.90
63013;DHT22;62113;45.624;11.700;2023-08-06T05:36:02;22.00;72.10
63013;DHT22;62113;45.624;11.700;2023-08-06T05:38:29;21.90;72.00
63013;DHT22;62113;45.624;11.700;2023-08-06T05:40:54;21.90;72.30
63013;DHT22;62113;45.624;11.700;2023-08-06T05:43:20;22.00;72.40
63013;DHT22;62113;45.624;11.700;2023-08-06T05:45:46;22.20;72.60
63013;DHT22;62113;45.624;11.700;2023-08-06T05:48:12;22.70;72.60
63013;DHT22;62113;45.624;11.700;2023-08-06T05:50:37;23.90;70.30
63013;DHT22;62113;45.624;11.700;2023-08-06T05:53:03;25.40;65.40
63013;DHT22;62113;45.624;11.700;2023-08-06T05:55:28;27.20;58.50
63013;DHT22;62113;45.624;11.700;2023-08-06T05:57:54;28.50;57.30
63013;DHT22;62113;45.624;11.700;2023-08-06T06:00:20;29.40;54.00
63013;DHT22;62113;45.624;11.700;2023-08-06T06:02:46;29.90;53.00
63013;DHT22;62113;45.624;11.700;2023-08-06T06:05:12;30.50;49.90
63013;DHT22;62113;45.624;11.700;2023-08-06T06:07:37;31.20;48.90
63013;DHT22;62113;45.624;11.700;2023-08-06T06:10:03;32.00;48.70
63013;DHT22;62113;45.624;11.700;2023-08-06T06:12:28;32.80;46.30
63013;DHT22;62113;45.624;11.700;2023-08-06T06:14:54;33.70;42.60
63013;DHT22;62113;45.624;11.700;2023-08-06T06:17:19;34.50;45.30
63013;DHT22;62113;45.624;11.700;2023-08-06T06:19:45;35.20;43.70
63013;DHT22;62113;45.624;11.700;2023-08-06T06:22:10;36.00;42.50
63013;DHT22;62113;45.624;11.700;2023-08-06T06:24:36;36.70;40.50
63013;DHT22;62113;45.624;11.700;2023-08-06T06:27:01;37.30;39.30
63013;DHT22;62113;45.624;11.700;2023-08-06T06:29:27;38.00;38.00
63013;DHT22;62113;45.624;11.700;2023-08-06T06:31:52;38.50;37.30
63013;DHT22;62113;45.624;11.700;2023-08-06T06:34:18;39.00;36.10
63013;DHT22;62113;45.624;11.700;2023-08-06T06:36:43;39.20;31.70
63013;DHT22;62113;45.624;11.700;2023-08-06T06:39:09;39.40;33.10
63013;DHT22;62113;45.624;11.700;2023-08-06T06:41:34;39.70;33.70
63013;DHT22;62113;45.624;11.700;2023-08-06T06:44:00;40.20;32.80
63013;DHT22;62113;45.624;11.700;2023-08-06T06:46:25;40.60;33.20
63013;DHT22;62113;45.624;11.700;2023-08-06T06:48:51;41.10;32.40
63013;DHT22;62113;45.624;11.700;2023-08-06T06:51:16;41.20;32.00
63013;DHT22;62113;45.624;11.700;2023-08-06T06:53:42;41.70;27.60
63013;DHT22;62113;45.624;11.700;2023-08-06T06:56:07;41.90;30.60
63013;DHT22;62113;45.624;11.700;2023-08-06T06:58:33;42.20;30.30
63013;DHT22;62113;45.624;11.700;2023-08-06T07:00:58;42.50;30.00
63013;DHT22;62113;45.624;11.700;2023-08-06T07:03:24;42.80;29.60
63013;DHT22;62113;45.624;11.700;2023-08-06T07:05:50;43.10;28.10
63013;DHT22;62113;45.624;11.700;2023-08-06T07:08:15;43.10;28.30
63013;DHT22;62113;45.624;11.700;2023-08-06T07:10:41;43.40;27.90
63013;DHT22;62113;45.624;11.700;2023-08-06T07:13:07;43.70;28.10
63013;DHT22;62113;45.624;11.700;2023-08-06T07:15:32;43.50;27.50
63013;DHT22;62113;45.624;11.700;2023-08-06T07:17:58;42.90;27.90
63013;DHT22;62113;45.624;11.700;2023-08-06T07:20:23;41.70;27.90
63013;DHT22;62113;45.624;11.700;2023-08-06T07:22:49;39.80;28.20
63013;DHT22;62113;45.624;11.700;2023-08-06T07:25:15;37.50;30.70
63013;DHT22;62113;45.624;11.700;2023-08-06T07:27:41;36.10;33.30
63013;DHT22;62113;45.624;11.700;2023-08-06T07:30:07;35.00;34.90
63013;DHT22;62113;45.624;11.700;2023-08-06T07:32:32;34.10;35.90
63013;DHT22;62113;45.624;11.700;2023-08-06T07:34:58;33.10;38.60
63013;DHT22;62113;45.624;11.700;2023-08-06T07:37:26;32.50;39.30
63013;DHT22;62113;45.624;11.700;2023-08-06T07:39:56;32.30;41.30
63013;DHT22;62113;45.624;11.700;2023-08-06T07:42:22;32.80;41.10
63013;DHT22;62113;45.624;11.700;2023-08-06T07:44:53;33.60;40.30
63013;DHT22;62113;45.624;11.700;2023-08-06T07:47:19;34.80;38.90
63013;DHT22;62113;45.624;11.700;2023-08-06T07:49:45;36.10;34.70
63013;DHT22;62113;45.624;11.700;2023-08-06T07:52:10;37.30;35.60
63013;DHT22;62113;45.624;11.700;2023-08-06T07:54:36;38.70;34.00
63013;DHT22;62113;45.624;11.700;2023-08-06T07:57:02;39.90;32.80
63013;DHT22;62113;45.624;11.700;2023-08-06T07:59:27;40.70;29.00
63013;DHT22;62113;45.624;11.700;2023-08-06T08:01:53;40.80;27.90
63013;DHT22;62113;45.624;11.700;2023-08-06T08:04:18;41.40;28.20
63013;DHT22;62113;45.624;11.700;2023-08-06T08:06:44;41.90;29.20
63013;DHT22;62113;45.624;11.700;2023-08-06T08:09:09;42.60;28.40
63013;DHT22;62113;45.624;11.700;2023-08-06T08:11:35;43.10;26.20
63013;DHT22;62113;45.624;11.700;2023-08-06T08:14:00;43.60;27.50
63013;DHT22;62113;45.624;11.700;2023-08-06T08:16:26;43.90;26.60
63013;DHT22;62113;45.624;11.700;2023-08-06T08:18:51;44.20;26.70
63013;DHT22;62113;45.624;11.700;2023-08-06T08:21:17;44.40;26.00
63013;DHT22;62113;45.624;11.700;2023-08-06T08:23:43;44.40;24.70
63013;DHT22;62113;45.624;11.700;2023-08-06T08:26:09;44.40;25.60
63013;DHT22;62113;45.624;11.700;2023-08-06T08:28:34;44.50;25.90
63013;DHT22;62113;45.624;11.700;2023-08-06T08:31:00;44.70;24.90
63013;DHT22;62113;45.624;11.700;2023-08-06T08:33:25;45.00;23.90
63013;DHT22;62113;45.624;11.700;2023-08-06T08:35:51;44.80;24.00
63013;DHT22;62113;45.624;11.700;2023-08-06T08:38:16;43.90;25.70
63013;DHT22;62113;45.624;11.700;2023-08-06T08:40:45;42.60;26.80
63013;DHT22;62113;45.624;11.700;2023-08-06T08:43:12;40.70;27.80
63013;DHT22;62113;45.624;11.700;2023-08-06T08:45:39;38.90;30.80
63013;DHT22;62113;45.624;11.700;2023-08-06T08:48:05;37.20;32.70
63013;DHT22;62113;45.624;11.700;2023-08-06T08:50:31;35.90;35.40
63013;DHT22;62113;45.624;11.700;2023-08-06T08:52:57;34.80;36.20
63013;DHT22;62113;45.624;11.700;2023-08-06T08:55:23;34.00;37.70
63013;DHT22;62113;45.624;11.700;2023-08-06T08:57:48;33.20;39.30
63013;DHT22;62113;45.624;11.700;2023-08-06T09:00:14;32.70;40.30
63013;DHT22;62113;45.624;11.700;2023-08-06T09:02:39;32.20;41.70
63013;DHT22;62113;45.624;11.700;2023-08-06T09:05:06;31.90;43.20
63013;DHT22;62113;45.624;11.700;2023-08-06T09:07:32;31.60;43.40
63013;DHT22;62113;45.624;11.700;2023-08-06T09:10:02;31.20;43.60
63013;DHT22;62113;45.624;11.700;2023-08-06T09:12:29;30.80;44.70
63013;DHT22;62113;45.624;11.700;2023-08-06T09:14:54;30.60;45.00
63013;DHT22;62113;45.624;11.700;2023-08-06T09:17:20;30.20;44.60
63013;DHT22;62113;45.624;11.700;2023-08-06T09:19:46;29.90;44.80
63013;DHT22;62113;45.624;11.700;2023-08-06T09:22:13;29.80;47.30
63013;DHT22;62113;45.624;11.700;2023-08-06T09:24:42;29.50;47.40
63013;DHT22;62113;45.624;11.700;2023-08-06T09:27:16;29.30;47.20
63013;DHT22;62113;45.624;11.700;2023-08-06T09:29:43;29.30;48.00
63013;DHT22;62113;45.624;11.700;2023-08-06T09:32:09;29.30;48.00
63013;DHT22;62113;45.624;11.700;2023-08-06T09:34:34;29.30;48.40
63013;DHT22;62113;45.624;11.700;2023-08-06T09:37:00;29.30;48.60
63013;DHT22;62113;45.624;11.700;2023-08-06T09:39:29;29.40;48.70
63013;DHT22;62113;45.624;11.700;2023-08-06T09:41:59;29.30;46.80
63013;DHT22;62113;45.624;11.700;2023-08-06T09:44:25;29.20;48.90
63013;DHT22;62113;45.624;11.700;2023-08-06T09:46:51;29.20;48.00
63013;DHT22;62113;45.624;11.700;2023-08-06T09:49:18;29.30;48.30
63013;DHT22;62113;45.624;11.700;2023-08-06T09:51:44;29.30;48.40
63013;DHT22;62113;45.624;11.700;2023-08-06T09:54:11;29.40;48.00
63013;DHT22;62113;45.624;11.700;2023-08-06T09:56:37;29.50;48.60
63013;DHT22;62113;45.624;11.700;2023-08-06T09:59:06;29.60;48.20
63013;DHT22;62113;45.624;11.700;2023-08-06T10:01:33;29.60;46.90
63013;DHT22;62113;45.624;11.700;2023-08-06T10:03:59;29.70;46.90
63013;DHT22;62113;45.624;11.700;2023-08-06T10:06:25;29.80;46.50
63013;DHT22;62113;45.624;11.700;2023-08-06T10:08:51;29.90;46.50
63013;DHT22;62113;45.624;11.700;2023-08-06T10:11:17;30.00;46.90
63013;DHT22;62113;45.624;11.700;2023-08-06T10:13:42;30.00;46.90
63013;DHT22;62113;45.624;11.700;2023-08-06T10:16:08;29.90;46.30
63013;DHT22;62113;45.624;11.700;2023-08-06T10:18:35;29.90;47.10
63013;DHT22;62113;45.624;11.700;2023-08-06T10:21:02;29.90;46.90
63013;DHT22;62113;45.624;11.700;2023-08-06T10:23:33;29.90;46.90
63013;DHT22;62113;45.624;11.700;2023-08-06T10:26:00;30.00;46.40
63013;DHT22;62113;45.624;11.700;2023-08-06T10:28:38;30.00;46.60
63013;DHT22;62113;45.624;11.700;2023-08-06T10:31:04;30.10;46.00
63013;DHT22;62113;45.624;11.700;2023-08-06T10:33:42;30.10;46.60
63013;DHT22;62113;45.624;11.700;2023-08-06T10:36:08;30.10;47.00
63013;DHT22;62113;45.624;11.700;2023-08-06T10:38:35;30.20;47.10
63013;DHT22;62113;45.624;11.700;2023-08-06T10:41:03;30.20;47.20
63013;DHT22;62113;45.624;11.700;2023-08-06T10:45:55;30.30;46.50
63013;DHT22;62113;45.624;11.700;2023-08-06T10:51:07;29.90;45.70
63013;DHT22;62113;45.624;11.700;2023-08-06T10:53:32;29.70;47.20
63013;DHT22;62113;45.624;11.700;2023-08-06T10:55:58;29.70;47.40
63013;DHT22;62113;45.624;11.700;2023-08-06T10:58:23;29.50;46.60
63013;DHT22;62113;45.624;11.700;2023-08-06T11:00:49;29.30;47.10
63013;DHT22;62113;45.624;11.700;2023-08-06T11:03:14;29.20;47.70
63013;DHT22;62113;45.624;11.700;2023-08-06T11:05:40;29.30;50.90
63013;DHT22;62113;45.624;11.700;2023-08-06T11:08:06;29.20;48.00
63013;DHT22;62113;45.624;11.700;2023-08-06T11:10:34;29.20;49.20
63013;DHT22;62113;45.624;11.700;2023-08-06T11:13:05;29.10;49.10
63013;DHT22;62113;45.624;11.700;2023-08-06T11:15:32;29.10;49.40
63013;DHT22;62113;45.624;11.700;2023-08-06T11:17:58;28.90;48.40
63013;DHT22;62113;45.624;11.700;2023-08-06T11:20:23;28.70;46.90
63013;DHT22;62113;45.624;11.700;2023-08-06T11:22:49;28.70;48.80
63013;DHT22;62113;45.624;11.700;2023-08-06T11:25:15;28.70;49.20
63013;DHT22;62113;45.624;11.700;2023-08-06T11:27:40;28.70;50.60
63013;DHT22;62113;45.624;11.700;2023-08-06T11:30:06;28.70;49.30
63013;DHT22;62113;45.624;11.700;2023-08-06T11:32:32;28.70;49.60
63013;DHT22;62113;45.624;11.700;2023-08-06T11:34:58;28.70;49.90
63013;DHT22;62113;45.624;11.700;2023-08-06T11:37:24;28.70;49.80
63013;DHT22;62113;45.624;11.700;2023-08-06T11:39:50;28.70;50.40
63013;DHT22;62113;45.624;11.700;2023-08-06T11:42:16;28.60;50.70
63013;DHT22;62113;45.624;11.700;2023-08-06T11:44:42;28.70;50.30
63013;DHT22;62113;45.624;11.700;2023-08-06T11:47:17;28.90;50.30
63013;DHT22;62113;45.624;11.700;2023-08-06T11:49:46;29.00;50.40
63013;DHT22;62113;45.624;11.700;2023-08-06T11:54:38;29.40;50.40
63013;DHT22;62113;45.624;11.700;2023-08-06T11:57:06;29.50;50.00
63013;DHT22;62113;45.624;11.700;2023-08-06T11:59:32;29.60;49.70
63013;DHT22;62113;45.624;11.700;2023-08-06T12:01:59;29.80;49.50
63013;DHT22;62113;45.624;11.700;2023-08-06T12:04:25;29.80;47.60
63013;DHT22;62113;45.624;11.700;2023-08-06T12:06:50;29.70;48.90
63013;DHT22;62113;45.624;11.700;2023-08-06T12:09:16;29.60;48.60
63013;DHT22;62113;45.624;11.700;2023-08-06T12:11:41;29.30;47.80
63013;DHT22;62113;45.624;11.700;2023-08-06T12:14:07;29.30;49.30
63013;DHT22;62113;45.624;11.700;2023-08-06T12:16:32;29.30;49.00
63013;DHT22;62113;45.624;11.700;2023-08-06T12:18:58;29.30;48.80
63013;DHT22;62113;45.624;11.700;2023-08-06T12:21:23;29.40;49.10
63013;DHT22;62113;45.624;11.700;2023-08-06T12:23:49;29.50;49.10
63013;DHT22;62113;45.624;11.700;2023-08-06T12:26:14;29.60;49.20
63013;DHT22;62113;45.624;11.700;2023-08-06T12:28:40;29.70;48.80
63013;DHT22;62113;45.624;11.700;2023-08-06T12:31:05;29.70;46.80
63013;DHT22;62113;45.624;11.700;2023-08-06T12:33:31;29.60;48.90
63013;DHT22;62113;45.624;11.700;2023-08-06T12:35:56;29.50;48.30
63013;DHT22;62113;45.624;11.700;2023-08-06T12:38:23;29.40;48.30
63013;DHT22;62113;45.624;11.700;2023-08-06T12:40:48;29.10;48.50
63013;DHT22;62113;45.624;11.700;2023-08-06T12:43:14;28.80;49.90
63013;DHT22;62113;45.624;11.700;2023-08-06T12:45:39;28.70;50.40
63013;DHT22;62113;45.624;11.700;2023-08-06T12:48:05;28.70;52.60
63013;DHT22;62113;45.624;11.700;2023-08-06T12:50:30;28.80;50.70
63013;DHT22;62113;45.624;11.700;2023-08-06T12:52:57;29.00;51.20
63013;DHT22;62113;45.624;11.700;2023-08-06T12:55:23;28.90;51.30
63013;DHT22;62113;45.624;11.700;2023-08-06T12:57:48;28.90;50.60
63013;DHT22;62113;45.624;11.700;2023-08-06T13:00:14;28.80;50.30
63013;DHT22;62113;45.624;11.700;2023-08-06T13:02:39;28.80;50.00
63013;DHT22;62113;45.624;11.700;2023-08-06T13:05:05;28.70;49.50
63013;DHT22;62113;45.624;11.700;2023-08-06T13:07:31;28.60;50.70
63013;DHT22;62113;45.624;11.700;2023-08-06T13:09:57;28.60;51.10
63013;DHT22;62113;45.624;11.700;2023-08-06T13:12:22;28.70;51.40
63013;DHT22;62113;45.624;11.700;2023-08-06T13:14:48;28.70;50.90
63013;DHT22;62113;45.624;11.700;2023-08-06T13:17:14;28.90;50.40
63013;DHT22;62113;45.624;11.700;2023-08-06T13:19:39;28.90;48.50
63013;DHT22;62113;45.624;11.700;2023-08-06T13:22:05;28.80;50.60
63013;DHT22;62113;45.624;11.700;2023-08-06T13:24:33;28.80;49.40
63013;DHT22;62113;45.624;11.700;2023-08-06T13:26:59;28.60;50.30
63013;DHT22;62113;45.624;11.700;2023-08-06T13:29:25;28.60;49.70
63013;DHT22;62113;45.624;11.700;2023-08-06T13:31:51;28.40;50.90
63013;DHT22;62113;45.624;11.700;2023-08-06T13:34:17;28.40;51.10
63013;DHT22;62113;45.624;11.700;2023-08-06T13:36:42;28.30;50.90
63013;DHT22;62113;45.624;11.700;2023-08-06T13:39:08;28.20;51.30
63013;DHT22;62113;45.624;11.700;2023-08-06T13:41:33;28.20;51.80
63013;DHT22;62113;45.624;11.700;2023-08-06T13:43:59;28.20;51.80
63013;DHT22;62113;45.624;11.700;2023-08-06T13:46:24;28.40;51.90
63013;DHT22;62113;45.624;11.700;2023-08-06T13:48:50;28.50;51.50
63013;DHT22;62113;45.624;11.700;2023-08-06T13:51:18;28.70;51.90
63013;DHT22;62113;45.624;11.700;2023-08-06T13:53:44;28.80;50.40
63013;DHT22;62113;45.624;11.700;2023-08-06T13:56:10;28.90;51.10
63013;DHT22;62113;45.624;11.700;2023-08-06T13:58:36;28.90;51.50
63013;DHT22;62113;45.624;11.700;2023-08-06T14:01:02;29.00;51.40
63013;DHT22;62113;45.624;11.700;2023-08-06T14:03:27;29.20;51.30
63013;DHT22;62113;45.624;11.700;2023-08-06T14:05:53;29.30;50.80
63013;DHT22;62113;45.624;11.700;2023-08-06T14:08:22;29.50;50.80
63013;DHT22;62113;45.624;11.700;2023-08-06T14:10:48;29.60;50.60
63013;DHT22;62113;45.624;11.700;2023-08-06T14:13:14;29.70;50.50
63013;DHT22;62113;45.624;11.700;2023-08-06T14:15:39;29.80;50.30
63013;DHT22;62113;45.624;11.700;2023-08-06T14:18:06;29.80;50.10
63013;DHT22;62113;45.624;11.700;2023-08-06T14:20:31;29.90;49.60
63013;DHT22;62113;45.624;11.700;2023-08-06T14:22:57;30.00;49.30
63013;DHT22;62113;45.624;11.700;2023-08-06T14:25:22;30.00;48.90
63013;DHT22;62113;45.624;11.700;2023-08-06T14:27:48;30.00;48.50
63013;DHT22;62113;45.624;11.700;2023-08-06T14:30:13;30.10;48.80
63013;DHT22;62113;45.624;11.700;2023-08-06T14:32:39;30.10;48.30
63013;DHT22;62113;45.624;11.700;2023-08-06T14:35:04;30.10;47.30
63013;DHT22;62113;45.624;11.700;2023-08-06T14:37:30;30.10;48.30
63013;DHT22;62113;45.624;11.700;2023-08-06T14:39:55;30.00;47.90
63013;DHT22;62113;45.624;11.700;2023-08-06T14:42:21;30.00;48.10
63013;DHT22;62113;45.624;11.700;2023-08-06T14:44:46;29.80;48.40
63013;DHT22;62113;45.624;11.700;2023-08-06T14:47:12;29.70;48.70
63013;DHT22;62113;45.624;11.700;2023-08-06T14:49:38;29.60;48.80
63013;DHT22;62113;45.624;11.700;2023-08-06T14:52:03;29.50;48.80
63013;DHT22;62113;45.624;11.700;2023-08-06T14:54:29;29.40;49.20
63013;DHT22;62113;45.624;11.700;2023-08-06T14:56:55;29.40;49.20
63013;DHT22;62113;45.624;11.700;2023-08-06T14:59:21;29.30;49.70
63013;DHT22;62113;45.624;11.700;2023-08-06T15:01:46;29.30;49.80
63013;DHT22;62113;45.624;11.700;2023-08-06T15:04:12;29.20;50.20
63013;DHT22;62113;45.624;11.700;2023-08-06T15:06:37;29.20;50.20
63013;DHT22;62113;45.624;11.700;2023-08-06T15:09:02;29.20;50.00
63013;DHT22;62113;45.624;11.700;2023-08-06T15:11:28;29.20;50.10
63013;DHT22;62113;45.624;11.700;2023-08-06T15:13:53;29.20;50.10
63013;DHT22;62113;45.624;11.700;2023-08-06T15:16:19;29.20;49.80
63013;DHT22;62113;45.624;11.700;2023-08-06T15:18:44;29.20;49.70